Terminal Aerodrome Forecast
Issued by NWS Des Moines, IA

Home | Current Version | Previous Version | Text Only | Print | Product List | Glossary On
Versions: 1 2 3 4 5 6 7 8 9 10 11 12 13 14 15 16 17 18 19 20 21 22 23 24 25 26 27 28
000
FTUS43 KDMX 261739
TAFALO
TAF
KALO 261739Z 2618/2718 23012KT P6SM SCT014 BKN022
     FM261900 26014G20KT P6SM SCT022
     FM262100 31015KT P6SM SCT025
     FM270300 32011KT P6SM BKN025=

USA.gov is the U.S. government's official web portal to all federal, state and local government web resources and services.